createdAt,value
2023-08-29T00:00:59.553Z,0.25
2023-08-29T00:03:32.165Z,0.30
2023-08-29T00:06:06.010Z,0.30
2023-08-29T00:08:34.582Z,0.40
2023-08-29T00:11:03.908Z,0.28
2023-08-29T00:13:31.086Z,0.30
2023-08-29T00:15:58.548Z,0.30
2023-08-29T00:18:25.633Z,0.30
2023-08-29T00:20:53.323Z,0.35
2023-08-29T00:23:20.188Z,0.38
2023-08-29T00:25:49.660Z,0.35
2023-08-29T00:28:16.545Z,0.40
2023-08-29T00:30:45.188Z,0.40
2023-08-29T00:33:12.876Z,0.50
2023-08-29T00:35:40.766Z,0.50
2023-08-29T00:38:08.049Z,0.30
2023-08-29T00:40:36.124Z,0.45
2023-08-29T00:43:03.996Z,0.40
2023-08-29T00:45:33.443Z,0.30
2023-08-29T00:48:04.203Z,0.30
2023-08-29T00:50:32.033Z,0.30
2023-08-29T00:53:02.080Z,0.35
2023-08-29T00:55:30.161Z,0.40
2023-08-29T00:57:57.752Z,0.30
2023-08-29T01:00:26.165Z,0.25
2023-08-29T01:02:53.112Z,0.40
2023-08-29T01:05:21.720Z,0.40
2023-08-29T01:07:53.877Z,0.30
2023-08-29T01:10:37.337Z,0.30
2023-08-29T01:13:34.885Z,0.40
2023-08-29T01:16:06.264Z,0.40
2023-08-29T01:18:35.192Z,0.30
2023-08-29T01:21:23.503Z,0.30
2023-08-29T01:24:11.918Z,0.40
2023-08-29T01:26:39.588Z,0.30
2023-08-29T01:29:06.582Z,0.40
2023-08-29T01:31:37.509Z,0.30
2023-08-29T01:34:04.926Z,0.35
2023-08-29T01:36:44.332Z,0.30
2023-08-29T01:39:11.598Z,0.30
2023-08-29T01:41:39.702Z,0.30
2023-08-29T01:44:06.785Z,0.43
2023-08-29T01:46:34.386Z,0.28
2023-08-29T01:49:03.569Z,0.22
2023-08-29T01:51:31.013Z,0.35
2023-08-29T01:53:58.512Z,0.40
2023-08-29T01:56:28.943Z,0.30
2023-08-29T01:58:57.223Z,0.30
2023-08-29T02:01:24.719Z,0.30
2023-08-29T02:03:52.863Z,0.40
2023-08-29T02:06:20.151Z,0.30
2023-08-29T02:08:47.166Z,0.40
2023-08-29T02:11:14.000Z,0.30
2023-08-29T02:13:40.876Z,0.30
2023-08-29T02:16:07.780Z,0.38
2023-08-29T02:18:34.799Z,0.38
2023-08-29T02:21:01.614Z,0.22
2023-08-29T02:23:28.839Z,0.20
2023-08-29T02:26:06.178Z,0.30
2023-08-29T02:28:38.845Z,0.28
2023-08-29T02:31:08.134Z,0.30
2023-08-29T02:33:38.958Z,0.60
2023-08-29T02:36:06.780Z,0.25
2023-08-29T02:38:34.445Z,0.30
2023-08-29T02:41:01.520Z,0.30
2023-08-29T02:43:28.851Z,0.50
2023-08-29T02:45:55.668Z,0.30
2023-08-29T02:48:22.496Z,0.40
2023-08-29T02:50:49.576Z,0.40
2023-08-29T02:53:17.985Z,0.43
2023-08-29T02:55:45.059Z,0.40
2023-08-29T02:58:11.943Z,0.40
2023-08-29T03:00:38.946Z,0.30
2023-08-29T03:03:06.060Z,0.20
2023-08-29T03:05:33.496Z,0.40
2023-08-29T03:08:01.314Z,0.40
2023-08-29T03:10:28.225Z,0.40
2023-08-29T03:12:55.104Z,0.30
2023-08-29T03:15:22.037Z,0.40
2023-08-29T03:17:48.954Z,0.40
2023-08-29T03:20:16.825Z,0.50
2023-08-29T03:22:43.998Z,0.30
2023-08-29T03:25:12.226Z,0.32
2023-08-29T03:27:39.085Z,0.40
2023-08-29T03:30:06.562Z,0.32
2023-08-29T03:32:33.459Z,0.50
2023-08-29T03:35:01.667Z,0.40
2023-08-29T03:37:29.188Z,0.38
2023-08-29T03:39:57.901Z,0.30
2023-08-29T03:42:24.786Z,0.30
2023-08-29T03:44:51.626Z,0.35
2023-08-29T03:47:19.937Z,0.30
2023-08-29T03:49:47.564Z,0.32
2023-08-29T03:52:27.607Z,0.30
2023-08-29T03:54:56.813Z,0.30
2023-08-29T03:57:24.172Z,0.28
2023-08-29T03:59:51.037Z,0.30
2023-08-29T04:02:19.831Z,0.50
2023-08-29T04:04:46.971Z,0.32
2023-08-29T04:07:13.962Z,0.30
2023-08-29T04:09:41.243Z,0.45
2023-08-29T04:12:09.351Z,0.40
2023-08-29T04:14:36.255Z,0.45
2023-08-29T04:17:03.223Z,0.73
2023-08-29T04:19:30.045Z,0.30
2023-08-29T04:21:57.984Z,0.30
2023-08-29T04:24:24.825Z,0.30
2023-08-29T04:26:52.128Z,0.40
2023-08-29T04:29:18.931Z,0.30
2023-08-29T04:31:45.857Z,0.30
2023-08-29T04:34:12.745Z,0.35
2023-08-29T04:36:39.615Z,0.40
2023-08-29T04:39:07.315Z,0.40
2023-08-29T04:41:34.140Z,0.40
2023-08-29T04:44:01.369Z,0.50
2023-08-29T04:46:28.188Z,0.52
2023-08-29T04:48:55.148Z,0.50
2023-08-29T04:51:22.010Z,0.65
2023-08-29T04:53:48.917Z,0.50
2023-08-29T04:56:15.748Z,0.30
2023-08-29T04:58:43.094Z,0.70
2023-08-29T05:01:10.062Z,0.60
2023-08-29T05:03:37.043Z,0.50
2023-08-29T05:06:04.143Z,0.63
2023-08-29T05:08:35.999Z,0.50
2023-08-29T05:11:03.940Z,0.65
2023-08-29T05:13:30.844Z,0.90
2023-08-29T05:15:57.673Z,0.70
2023-08-29T05:18:24.636Z,0.63
2023-08-29T05:20:53.003Z,0.63
2023-08-29T05:23:21.574Z,0.90
2023-08-29T05:25:48.514Z,0.95
2023-08-29T05:28:15.383Z,0.90
2023-08-29T05:30:43.971Z,0.77
2023-08-29T05:33:11.409Z,0.88
2023-08-29T05:35:38.260Z,0.93
2023-08-29T05:38:05.446Z,0.60
2023-08-29T05:40:34.367Z,0.75
2023-08-29T05:43:01.581Z,0.88
2023-08-29T05:45:28.459Z,0.88
2023-08-29T05:47:55.294Z,0.88
2023-08-29T05:50:22.270Z,0.68
2023-08-29T05:52:49.115Z,0.70
2023-08-29T05:55:16.037Z,0.98
2023-08-29T05:57:42.862Z,0.88
2023-08-29T06:00:11.412Z,0.73
2023-08-29T06:02:45.430Z,0.65
2023-08-29T06:05:12.502Z,0.55
2023-08-29T06:07:42.329Z,0.73
2023-08-29T06:10:09.526Z,0.90
2023-08-29T06:12:36.378Z,0.75
2023-08-29T06:15:03.292Z,0.70
2023-08-29T06:17:30.152Z,0.80
2023-08-29T06:19:57.476Z,0.65
2023-08-29T06:22:25.321Z,0.65
2023-08-29T06:24:52.204Z,0.60
2023-08-29T06:27:19.062Z,0.70
2023-08-29T06:29:45.875Z,0.68
2023-08-29T06:32:12.744Z,0.70
2023-08-29T06:34:39.547Z,0.60
2023-08-29T06:37:06.958Z,0.73
2023-08-29T06:39:34.097Z,0.60
2023-08-29T06:42:00.944Z,0.60
2023-08-29T06:44:28.092Z,0.80
2023-08-29T06:46:54.894Z,0.68
2023-08-29T06:49:21.649Z,0.85
2023-08-29T06:51:48.461Z,0.65
2023-08-29T06:54:15.293Z,0.50
2023-08-29T06:56:42.240Z,0.60
2023-08-29T06:59:09.327Z,0.50
2023-08-29T07:01:38.336Z,1.00
2023-08-29T07:04:05.722Z,0.70
2023-08-29T07:06:32.533Z,0.77
2023-08-29T07:08:59.352Z,0.80
2023-08-29T07:11:26.384Z,0.77
2023-08-29T07:13:53.162Z,0.70
2023-08-29T07:16:20.141Z,0.90
2023-08-29T07:18:47.432Z,0.52
2023-08-29T07:21:14.532Z,0.80
2023-08-29T07:23:41.477Z,0.70
2023-08-29T07:26:08.394Z,0.75
2023-08-29T07:28:35.223Z,0.70
2023-08-29T07:31:02.150Z,0.95
2023-08-29T07:33:28.939Z,0.93
2023-08-29T07:35:55.744Z,0.50
2023-08-29T07:38:22.641Z,0.60
2023-08-29T07:40:49.421Z,1.10
2023-08-29T07:43:16.905Z,0.98
2023-08-29T07:45:44.207Z,1.02
2023-08-29T07:48:11.637Z,0.98
2023-08-29T07:50:38.760Z,1.08
2023-08-29T07:53:05.653Z,1.15
2023-08-29T07:55:32.751Z,1.40
2023-08-29T07:58:00.712Z,1.20
2023-08-29T08:00:29.328Z,1.40
2023-08-29T08:02:56.768Z,0.90
2023-08-29T08:05:24.523Z,1.17
2023-08-29T08:07:51.552Z,1.00
2023-08-29T08:10:19.616Z,0.77
2023-08-29T08:12:50.485Z,1.40
2023-08-29T08:15:17.693Z,1.20
2023-08-29T08:17:45.850Z,0.90
2023-08-29T08:20:13.362Z,1.00
2023-08-29T08:22:41.546Z,1.30
2023-08-29T08:25:10.376Z,0.90
2023-08-29T08:27:37.609Z,1.20
2023-08-29T08:30:08.875Z,0.93
2023-08-29T08:32:36.200Z,0.80
2023-08-29T08:35:07.811Z,0.95
2023-08-29T08:37:35.848Z,0.90
2023-08-29T08:40:12.153Z,0.90
2023-08-29T08:42:41.964Z,0.88
2023-08-29T08:45:10.335Z,0.90
2023-08-29T08:47:38.309Z,1.27
2023-08-29T08:50:09.370Z,1.00
2023-08-29T08:52:37.170Z,0.88
2023-08-29T08:55:04.454Z,1.10
2023-08-29T08:57:32.032Z,0.95
2023-08-29T08:59:58.957Z,0.88
2023-08-29T09:02:27.015Z,0.80
2023-08-29T09:04:54.837Z,0.90
2023-08-29T09:07:21.691Z,1.60
2023-08-29T09:10:11.639Z,0.90
2023-08-29T09:12:56.782Z,0.90
2023-08-29T09:15:26.113Z,0.85
2023-08-29T09:17:54.691Z,0.80
2023-08-29T09:20:23.090Z,0.60
2023-08-29T09:22:49.860Z,0.80
2023-08-29T09:25:16.708Z,1.00
2023-08-29T09:27:46.527Z,1.02
2023-08-29T09:30:16.020Z,0.80
2023-08-29T09:32:47.821Z,0.82
2023-08-29T09:35:16.724Z,0.80
2023-08-29T09:37:48.415Z,0.77
2023-08-29T09:40:37.142Z,0.98
2023-08-29T09:43:05.902Z,0.85
2023-08-29T09:45:34.088Z,0.80
2023-08-29T09:48:07.334Z,0.65
2023-08-29T09:50:35.272Z,0.68
2023-08-29T09:53:03.929Z,1.08
2023-08-29T09:55:53.244Z,0.60
2023-08-29T09:58:24.970Z,0.70
2023-08-29T10:03:20.708Z,0.70
2023-08-29T10:05:49.249Z,0.75
2023-08-29T10:08:34.832Z,0.60
2023-08-29T10:11:02.505Z,0.80
2023-08-29T10:13:31.036Z,0.75
2023-08-29T10:15:58.919Z,0.73
2023-08-29T10:18:27.176Z,0.70
2023-08-29T10:20:55.629Z,0.80
2023-08-29T10:23:24.079Z,0.65
2023-08-29T10:25:51.171Z,0.93
2023-08-29T10:28:19.201Z,0.55
2023-08-29T10:30:57.733Z,0.80
2023-08-29T10:33:24.642Z,1.02
2023-08-29T10:35:51.679Z,1.10
2023-08-29T10:38:19.288Z,0.98
2023-08-29T10:40:47.329Z,0.80
2023-08-29T10:43:22.007Z,0.85
2023-08-29T10:45:54.670Z,0.68
2023-08-29T10:48:31.206Z,1.00
2023-08-29T10:51:17.021Z,0.60
2023-08-29T10:53:52.661Z,0.70
2023-08-29T10:56:26.081Z,0.60
2023-08-29T10:58:55.017Z,0.77
2023-08-29T11:01:32.049Z,0.60
2023-08-29T11:04:16.868Z,0.65
2023-08-29T11:06:57.869Z,0.63
2023-08-29T11:09:26.235Z,0.70
2023-08-29T11:12:18.124Z,0.90
2023-08-29T11:14:58.800Z,0.73
2023-08-29T11:17:27.353Z,0.70
2023-08-29T11:19:56.264Z,0.98
2023-08-29T11:22:26.798Z,0.60
2023-08-29T11:24:57.733Z,0.52
2023-08-29T11:27:31.958Z,0.57
2023-08-29T11:30:25.188Z,0.60
2023-08-29T11:32:51.628Z,0.60
2023-08-29T11:35:18.859Z,0.60
2023-08-29T11:37:45.762Z,0.50
2023-08-29T11:40:18.104Z,0.77
2023-08-29T11:43:09.633Z,0.50
2023-08-29T11:45:48.859Z,0.60
2023-08-29T11:48:26.689Z,0.50
2023-08-29T11:50:58.245Z,0.63
2023-08-29T11:53:32.376Z,0.75
2023-08-29T11:56:00.338Z,0.90
2023-08-29T11:58:32.386Z,0.50
2023-08-29T12:01:02.440Z,0.52
2023-08-29T12:03:29.309Z,0.68
2023-08-29T12:05:58.294Z,0.65
2023-08-29T12:08:42.122Z,0.50
2023-08-29T12:11:10.828Z,1.00
2023-08-29T12:13:38.424Z,0.60
2023-08-29T12:16:15.054Z,0.57
2023-08-29T12:18:42.001Z,0.50
2023-08-29T12:21:15.139Z,0.70
2023-08-29T12:23:43.890Z,0.60
2023-08-29T12:26:11.950Z,1.08
2023-08-29T12:28:39.303Z,0.68
2023-08-29T12:31:08.380Z,0.63
2023-08-29T12:33:36.232Z,0.70
2023-08-29T12:36:04.147Z,0.60
2023-08-29T12:38:32.563Z,0.50
2023-08-29T12:40:59.614Z,0.50
2023-08-29T12:43:26.388Z,0.57
2023-08-29T12:45:59.296Z,0.63
2023-08-29T12:48:27.696Z,0.70
2023-08-29T12:50:54.620Z,0.93
2023-08-29T12:53:21.549Z,0.60
2023-08-29T12:55:48.379Z,0.57
2023-08-29T12:58:15.219Z,0.77
2023-08-29T13:00:43.259Z,0.70
2023-08-29T13:03:11.025Z,0.90
2023-08-29T13:05:38.157Z,0.90
2023-08-29T13:08:05.856Z,0.70
2023-08-29T13:10:33.050Z,1.05
2023-08-29T13:12:59.865Z,0.77
2023-08-29T13:15:33.944Z,0.90
2023-08-29T13:18:08.218Z,0.80
2023-08-29T13:20:35.489Z,1.20
2023-08-29T13:23:02.410Z,1.20
2023-08-29T13:25:29.863Z,0.95
2023-08-29T13:27:58.862Z,0.90
2023-08-29T13:30:25.775Z,0.90
2023-08-29T13:32:52.709Z,1.05
2023-08-29T13:35:20.116Z,0.90
2023-08-29T13:37:47.295Z,0.95
2023-08-29T13:40:14.555Z,1.20
2023-08-29T13:42:42.741Z,0.90
2023-08-29T13:45:10.056Z,0.95
2023-08-29T13:47:36.873Z,0.90
2023-08-29T13:50:04.006Z,1.00
2023-08-29T13:52:30.902Z,1.02
2023-08-29T13:54:57.938Z,1.17
2023-08-29T13:57:24.937Z,1.02
2023-08-29T13:59:51.822Z,1.10
2023-08-29T14:02:18.837Z,1.10
2023-08-29T14:04:45.819Z,1.10
2023-08-29T14:07:12.722Z,1.20
2023-08-29T14:09:39.583Z,1.30
2023-08-29T14:12:06.820Z,1.23
2023-08-29T14:14:33.590Z,1.45
2023-08-29T14:17:00.412Z,1.30
2023-08-29T14:19:27.308Z,1.23
2023-08-29T14:21:54.147Z,1.25
2023-08-29T14:24:20.989Z,1.63
2023-08-29T14:26:48.102Z,1.27
2023-08-29T14:29:15.005Z,1.10
2023-08-29T14:31:41.936Z,1.30
2023-08-29T14:34:08.867Z,1.10
2023-08-29T14:36:35.696Z,1.20
2023-08-29T14:39:02.984Z,1.05
2023-08-29T14:41:29.773Z,0.90
2023-08-29T14:43:56.920Z,1.05
2023-08-29T14:46:23.948Z,1.10
2023-08-29T14:48:50.795Z,1.00
2023-08-29T14:51:17.633Z,0.90
2023-08-29T14:53:44.528Z,0.90
2023-08-29T14:56:11.521Z,0.60
2023-08-29T14:58:38.368Z,1.00
2023-08-29T15:01:05.223Z,0.90
2023-08-29T15:03:32.255Z,1.20
2023-08-29T15:05:59.719Z,0.90
2023-08-29T15:08:27.231Z,1.02
2023-08-29T15:10:57.971Z,1.00
2023-08-29T15:13:29.048Z,1.02
2023-08-29T15:16:00.469Z,1.15
2023-08-29T15:18:27.728Z,1.10
2023-08-29T15:20:54.609Z,0.93
2023-08-29T15:23:21.930Z,0.88
2023-08-29T15:25:48.799Z,1.13
2023-08-29T15:28:15.568Z,0.90
2023-08-29T15:30:42.336Z,0.90
2023-08-29T15:33:09.277Z,1.00
2023-08-29T15:35:36.190Z,1.20
2023-08-29T15:38:03.285Z,0.90
2023-08-29T15:40:30.215Z,1.08
2023-08-29T15:42:58.962Z,0.85
2023-08-29T15:45:25.967Z,0.90
2023-08-29T15:47:53.966Z,1.10
2023-08-29T15:50:21.058Z,1.30
2023-08-29T15:52:47.864Z,1.10
2023-08-29T15:55:14.712Z,1.08
2023-08-29T15:57:41.545Z,1.10
2023-08-29T16:00:15.199Z,1.10
2023-08-29T16:02:45.426Z,1.10
2023-08-29T16:05:12.567Z,1.52
2023-08-29T16:07:39.770Z,1.23
2023-08-29T16:10:07.444Z,1.10
2023-08-29T16:12:34.279Z,1.00
2023-08-29T16:15:01.095Z,1.08
2023-08-29T16:17:28.818Z,0.90
2023-08-29T16:19:55.726Z,1.05
2023-08-29T16:22:22.627Z,1.02
2023-08-29T16:24:49.399Z,1.30
2023-08-29T16:27:17.045Z,1.10
2023-08-29T16:29:43.881Z,1.15
2023-08-29T16:32:10.702Z,1.10
2023-08-29T16:34:37.602Z,0.98
2023-08-29T16:37:05.060Z,1.15
2023-08-29T16:39:34.078Z,1.30
2023-08-29T16:42:01.148Z,1.27
2023-08-29T16:44:27.919Z,1.13
2023-08-29T16:46:54.807Z,1.10
2023-08-29T16:49:21.642Z,1.45
2023-08-29T16:51:48.410Z,1.20
2023-08-29T16:54:16.244Z,1.63
2023-08-29T16:56:43.258Z,1.40
2023-08-29T16:59:10.173Z,1.38
2023-08-29T17:01:37.760Z,1.20
2023-08-29T17:04:06.887Z,1.52
2023-08-29T17:06:34.534Z,1.27
2023-08-29T17:09:01.753Z,1.20
2023-08-29T17:11:28.635Z,1.35
2023-08-29T17:13:55.477Z,1.13
2023-08-29T17:16:23.068Z,1.40
2023-08-29T17:18:49.994Z,1.23
2023-08-29T17:21:17.868Z,1.23
2023-08-29T17:23:44.712Z,1.33
2023-08-29T17:26:11.640Z,1.40
2023-08-29T17:28:38.522Z,1.30
2023-08-29T17:31:10.522Z,1.23
2023-08-29T17:36:07.638Z,1.13
2023-08-29T17:38:34.455Z,1.58
2023-08-29T17:41:01.895Z,1.13
2023-08-29T17:43:29.396Z,1.20
2023-08-29T18:25:31.018Z,4.85
2023-08-29T18:27:57.916Z,4.32
2023-08-29T18:30:24.858Z,3.28
2023-08-29T18:32:51.820Z,3.10
2023-08-29T18:35:18.770Z,3.47
2023-08-29T18:37:45.739Z,2.90
2023-08-29T18:40:12.849Z,2.80
2023-08-29T18:42:39.792Z,2.05
2023-08-29T19:02:40.026Z,2.20
2023-08-29T19:05:08.603Z,1.98
2023-08-29T19:07:36.051Z,2.20
2023-08-29T19:10:04.761Z,2.00
2023-08-29T19:12:32.500Z,1.67
2023-08-29T19:15:01.754Z,1.60
2023-08-29T19:17:29.277Z,1.85
2023-08-29T19:19:56.265Z,1.67
2023-08-29T19:22:23.266Z,1.85
2023-08-29T19:24:50.273Z,2.58
2023-08-29T19:27:23.769Z,1.50
2023-08-29T19:29:55.030Z,1.67
2023-08-29T19:32:22.789Z,2.03
2023-08-29T19:34:49.899Z,1.60
2023-08-29T19:37:17.609Z,1.58
2023-08-29T19:39:44.593Z,1.65
2023-08-29T19:42:11.560Z,1.60
2023-08-29T19:44:38.498Z,1.85
2023-08-29T19:47:07.037Z,1.40
2023-08-29T19:49:39.036Z,1.60
2023-08-29T19:52:07.108Z,1.45
2023-08-29T19:54:34.186Z,1.40
2023-08-29T19:57:01.093Z,1.30
2023-08-29T19:59:28.018Z,1.65
2023-08-29T20:01:54.959Z,1.40
2023-08-29T20:04:22.223Z,1.80
2023-08-29T20:06:49.172Z,1.60
2023-08-29T20:09:16.775Z,1.40
2023-08-29T20:11:45.097Z,1.40
2023-08-29T20:14:13.589Z,1.20
2023-08-29T20:16:40.573Z,1.20
2023-08-29T20:19:07.559Z,1.30
2023-08-29T20:21:34.502Z,1.40
2023-08-29T20:24:02.806Z,1.15
2023-08-29T20:26:31.424Z,1.30
2023-08-29T20:29:00.591Z,1.38
2023-08-29T20:31:28.190Z,1.77
2023-08-29T20:33:55.089Z,1.30
2023-08-29T20:36:22.223Z,1.45
2023-08-29T20:38:49.195Z,1.30
2023-08-29T20:41:16.097Z,1.50
2023-08-29T20:43:43.122Z,1.20
2023-08-29T20:46:10.056Z,1.23
2023-08-29T20:48:37.018Z,1.67
2023-08-29T20:51:04.138Z,1.30
2023-08-29T20:53:33.172Z,1.38
2023-08-29T20:56:00.238Z,1.33
2023-08-29T20:58:27.156Z,1.23
2023-08-29T21:01:01.895Z,1.60
2023-08-29T21:03:30.425Z,1.50
2023-08-29T21:06:00.605Z,1.58
2023-08-29T21:08:28.296Z,1.50
2023-08-29T21:10:55.583Z,1.70
2023-08-29T21:13:23.694Z,1.50
2023-08-29T21:15:51.253Z,1.50
2023-08-29T21:18:19.801Z,1.60
2023-08-29T21:20:49.862Z,1.30
2023-08-29T21:23:16.838Z,1.42
2023-08-29T21:25:50.866Z,1.25
2023-08-29T21:28:19.175Z,1.67
2023-08-29T21:30:46.946Z,1.83
2023-08-29T21:33:14.349Z,1.98
2023-08-29T21:35:42.647Z,1.40
2023-08-29T21:38:11.383Z,1.63
2023-08-29T21:40:40.258Z,1.25
2023-08-29T21:43:12.492Z,1.60
2023-08-29T21:45:42.776Z,1.45
2023-08-29T21:48:11.499Z,1.55
2023-08-29T21:50:42.835Z,1.55
2023-08-29T21:53:11.243Z,1.40
2023-08-29T21:55:39.877Z,1.60
2023-08-29T21:58:08.598Z,1.20
2023-08-29T22:00:35.957Z,1.30
2023-08-29T22:03:03.412Z,1.15
2023-08-29T22:05:31.944Z,1.10
2023-08-29T22:07:59.746Z,1.27
2023-08-29T22:10:26.829Z,1.50
2023-08-29T22:12:53.845Z,1.40
2023-08-29T22:15:21.235Z,1.30
2023-08-29T22:17:48.359Z,1.40
2023-08-29T22:20:16.057Z,1.10
2023-08-29T22:22:43.258Z,1.35
2023-08-29T22:25:10.935Z,1.35
2023-08-29T22:27:38.064Z,1.15
2023-08-29T22:30:06.460Z,1.27
2023-08-29T22:32:34.170Z,1.60
2023-08-29T22:35:01.699Z,1.30
2023-08-29T22:37:28.955Z,1.40
2023-08-29T22:39:55.876Z,1.10
2023-08-29T22:42:23.300Z,1.40
2023-08-29T22:44:50.219Z,1.50
2023-08-29T22:47:17.651Z,1.63
2023-08-29T22:49:44.822Z,1.65
2023-08-29T22:52:12.701Z,1.60
2023-08-29T22:54:39.735Z,1.50
2023-08-29T22:57:06.759Z,1.42
2023-08-29T22:59:33.693Z,1.42
2023-08-29T23:02:00.601Z,1.75
2023-08-29T23:04:30.363Z,1.30
2023-08-29T23:07:05.372Z,1.50
2023-08-29T23:09:32.986Z,1.50
2023-08-29T23:12:01.039Z,1.67
2023-08-29T23:14:29.094Z,1.40
2023-08-29T23:16:57.661Z,1.50
2023-08-29T23:19:25.320Z,1.63
2023-08-29T23:21:55.834Z,1.40
2023-08-29T23:24:23.344Z,1.38
2023-08-29T23:26:50.435Z,1.40
2023-08-29T23:29:17.953Z,1.42
2023-08-29T23:31:45.363Z,1.30
2023-08-29T23:34:12.371Z,1.50
2023-08-29T23:36:39.455Z,1.40
2023-08-29T23:39:08.296Z,1.25
2023-08-29T23:41:35.719Z,1.38
2023-08-29T23:44:02.775Z,1.58
2023-08-29T23:46:30.135Z,1.67
2023-08-29T23:48:57.066Z,1.70
2023-08-29T23:51:23.957Z,1.30
2023-08-29T23:53:51.515Z,1.23
2023-08-29T23:56:18.901Z,1.25
2023-08-29T23:58:46.549Z,1.35
